Погода Осекана 2 недели

Брестская область, Белоруссия

17 - 30 июля
  • 17июля
    Сегодня
    +18°
    +30°
    Практически безоблачно
    ВремяПогодаТемператураВлажностьДавлениеВетер, м/сВероятность осадков
    00:00Практически безоблачно+24°C77 %746 мм3.5 м/с2 %
    03:00Небольшая облачность+23°C84 %746 мм3.0 м/с6 %
    06:00Ясно и безоблачно+22°C91 %747 мм2.7 м/с9 %
    09:00Пасмурно, сплошная облачность+23°C87 %749 мм3.3 м/с20 %
    12:00Практически безоблачно+27°C66 %750 мм3.7 м/с14 %
    15:00Практически безоблачно+29°C50 %749 мм3.1 м/с2 %
    18:00Практически безоблачно+30°C49 %750 мм2.1 м/с2 %
    21:00Небольшая облачность+27°C68 %750 мм0.8 м/с4 %
  • 18июля
    Четверг
    +16°
    +27°
    Ясно и безоблачно
    ВремяПогодаТемператураВлажностьДавлениеВетер, м/сВероятность осадков
    00:00Облачно с прояснениями+23°C75 %750 мм2.4 м/с6 %
    03:00Облачно с прояснениями+22°C71 %750 мм3.2 м/с17 %
    06:00Пасмурно, дожди с грозами+19°C93 %751 мм0.9 м/с65 %
    09:00Практически безоблачно+21°C82 %751 мм1.5 м/с49 %
    12:00Ясно и безоблачно+24°C57 %751 мм3.3 м/с7 %
    15:00Ясно и безоблачно+27°C48 %751 мм4.5 м/с4 %
    18:00Ясно и безоблачно+26°C45 %751 мм4.4 м/с5 %
    21:00Практически безоблачно+24°C58 %751 мм2.8 м/с1 %
  • 19июля
    Пятница
    +14°
    +26°
    Ясно и безоблачно
    ВремяПогодаТемператураВлажностьДавлениеВетер, м/сВероятность осадков
    00:00Ясно и безоблачно+20°C68 %752 мм2.7 м/с2 %
    03:00Ясно и безоблачно+18°C72 %752 мм2.9 м/с2 %
    06:00Облачно с прояснениями+16°C84 %752 мм2.1 м/с2 %
    09:00Небольшая облачность+19°C74 %752 мм2.6 м/с2 %
    12:00Облачно с прояснениями+22°C53 %752 мм3.1 м/с2 %
    15:00Ясно и безоблачно+25°C44 %751 мм3.6 м/с2 %
    18:00Ясно и безоблачно+26°C43 %750 мм3.7 м/с2 %
    21:00Ясно и безоблачно+22°C63 %749 мм1.9 м/с2 %
  • 20июля
    Суббота
    +14°
    +25°
    Практически безоблачно
    ВремяПогодаТемператураВлажностьДавлениеВетер, м/сВероятность осадков
    00:00Ясно и безоблачно+18°C75 %749 мм2.0 м/с2 %
    03:00Ясно и безоблачно+17°C72 %749 мм2.9 м/с2 %
    06:00Ясно и безоблачно+15°C84 %748 мм1.6 м/с2 %
    09:00Практически безоблачно+19°C67 %748 мм1.6 м/с2 %
    12:00Облачно с прояснениями+22°C53 %747 мм2.9 м/с2 %
    15:00Практически безоблачно+24°C44 %747 мм2.5 м/с2 %
    18:00Ясно и безоблачно+25°C41 %746 мм2.1 м/с2 %
    21:00Ясно и безоблачно+21°C65 %745 мм2.0 м/с2 %
  • 21июля
    Воскресенье
    +14°
    +27°
    Ясно и безоблачно
    ВремяПогодаТемператураВлажностьДавлениеВетер, м/сВероятность осадков
    00:00Ясно и безоблачно+17°C73 %745 мм1.9 м/с2 %
    03:00Ясно и безоблачно+16°C79 %744 мм2.0 м/с2 %
    06:00Ясно и безоблачно+15°C88 %744 мм1.6 м/с2 %
    09:00Ясно и безоблачно+21°C65 %744 мм0.5 м/с2 %
    12:00Ясно и безоблачно+24°C42 %744 мм1.6 м/с7 %
    15:00Ясно и безоблачно+26°C38 %743 мм1.5 м/с13 %
    18:00Практически безоблачно+26°C39 %742 мм2.1 м/с8 %
    21:00Небольшая облачность+23°C62 %743 мм1.5 м/с4 %
Мы используем cookies
Соглашаюсь